Terminal Aerodrome Forecast
Issued by NWS

Home | Current Version | Previous Version | Text Only | Print | Product List | Glossary On
Versions: 1 2 3 4 5 6 7 8 9 10 11 12 13 14 15 16 17 18 19 20
143
FTPA31 PHFO 231737
TAFHLI
TAF
PHLI 231737Z 2318/2418 03008KT P6SM VCSH SCT025 BKN045
      TEMPO 2318/2320 -SHRA BKN025
     FM232000 05012KT P6SM SCT025 SCT045
     FM240600 05010KT P6SM VCSH SCT035 BKN045=

USA.gov is the U.S. government's official web portal to all federal, state and local government web resources and services.